sensor_id;sensor_type;location;lat;lon;timestamp;P1;durP1;ratioP1;P2;durP2;ratioP2
23206;SDS011;11773;52.570;13.052;2022-09-28T00:00:22;0.10;;;0.10;;
23206;SDS011;11773;52.570;13.052;2022-09-28T00:02:53;0.30;;;0.30;;
23206;SDS011;11773;52.570;13.052;2022-09-28T00:05:23;0.20;;;0.20;;
23206;SDS011;11773;52.570;13.052;2022-09-28T00:07:53;0.33;;;0.33;;
23206;SDS011;11773;52.570;13.052;2022-09-28T00:10:23;0.30;;;0.30;;
23206;SDS011;11773;52.570;13.052;2022-09-28T00:12:53;0.30;;;0.30;;
23206;SDS011;11773;52.570;13.052;2022-09-28T00:15:22;0.20;;;0.20;;
23206;SDS011;11773;52.570;13.052;2022-09-28T00:17:52;0.30;;;0.30;;
23206;SDS011;11773;52.570;13.052;2022-09-28T00:20:21;0.40;;;0.40;;
23206;SDS011;11773;52.570;13.052;2022-09-28T00:22:51;0.30;;;0.30;;
23206;SDS011;11773;52.570;13.052;2022-09-28T00:25:21;0.20;;;0.20;;
23206;SDS011;11773;52.570;13.052;2022-09-28T00:27:50;0.23;;;0.23;;
23206;SDS011;11773;52.570;13.052;2022-09-28T00:30:20;0.17;;;0.17;;
23206;SDS011;11773;52.570;13.052;2022-09-28T00:32:50;0.30;;;0.30;;
23206;SDS011;11773;52.570;13.052;2022-09-28T00:35:19;0.30;;;0.30;;
23206;SDS011;11773;52.570;13.052;2022-09-28T00:37:49;0.30;;;0.30;;
23206;SDS011;11773;52.570;13.052;2022-09-28T00:40:18;0.20;;;0.20;;
23206;SDS011;11773;52.570;13.052;2022-09-28T00:42:48;0.30;;;0.30;;
23206;SDS011;11773;52.570;13.052;2022-09-28T00:45:17;0.37;;;0.37;;
23206;SDS011;11773;52.570;13.052;2022-09-28T00:47:48;0.33;;;0.23;;
23206;SDS011;11773;52.570;13.052;2022-09-28T00:50:28;0.30;;;0.30;;
23206;SDS011;11773;52.570;13.052;2022-09-28T00:53:03;0.30;;;0.30;;
23206;SDS011;11773;52.570;13.052;2022-09-28T00:55:41;0.40;;;0.40;;
23206;SDS011;11773;52.570;13.052;2022-09-28T00:58:25;0.60;;;0.47;;
23206;SDS011;11773;52.570;13.052;2022-09-28T01:01:00;0.57;;;0.57;;
23206;SDS011;11773;52.570;13.052;2022-09-28T01:03:31;0.63;;;0.63;;
23206;SDS011;11773;52.570;13.052;2022-09-28T01:06:02;0.40;;;0.40;;
23206;SDS011;11773;52.570;13.052;2022-09-28T01:08:34;0.40;;;0.40;;
23206;SDS011;11773;52.570;13.052;2022-09-28T01:11:06;0.40;;;0.40;;
23206;SDS011;11773;52.570;13.052;2022-09-28T01:13:36;0.50;;;0.50;;
23206;SDS011;11773;52.570;13.052;2022-09-28T01:21:58;1.00;;;0.60;;
23206;SDS011;11773;52.570;13.052;2022-09-28T01:25:02;0.40;;;0.40;;
23206;SDS011;11773;52.570;13.052;2022-09-28T01:27:53;0.30;;;0.30;;
23206;SDS011;11773;52.570;13.052;2022-09-28T01:30:42;0.30;;;0.30;;
23206;SDS011;11773;52.570;13.052;2022-09-28T01:33:38;0.50;;;0.50;;
23206;SDS011;11773;52.570;13.052;2022-09-28T01:36:17;0.43;;;0.43;;
23206;SDS011;11773;52.570;13.052;2022-09-28T01:39:01;0.33;;;0.33;;
23206;SDS011;11773;52.570;13.052;2022-09-28T01:41:30;0.65;;;0.35;;
23206;SDS011;11773;52.570;13.052;2022-09-28T01:44:04;0.40;;;0.40;;
23206;SDS011;11773;52.570;13.052;2022-09-28T01:46:38;0.40;;;0.40;;
23206;SDS011;11773;52.570;13.052;2022-09-28T01:49:18;0.50;;;0.43;;
23206;SDS011;11773;52.570;13.052;2022-09-28T01:52:02;0.33;;;0.33;;
23206;SDS011;11773;52.570;13.052;2022-09-28T01:54:39;0.50;;;0.50;;
23206;SDS011;11773;52.570;13.052;2022-09-28T01:57:13;0.77;;;0.50;;
23206;SDS011;11773;52.570;13.052;2022-09-28T02:00:07;0.30;;;0.30;;
23206;SDS011;11773;52.570;13.052;2022-09-28T02:02:45;0.40;;;0.40;;
23206;SDS011;11773;52.570;13.052;2022-09-28T02:05:36;0.53;;;0.53;;
23206;SDS011;11773;52.570;13.052;2022-09-28T02:08:06;0.40;;;0.40;;
23206;SDS011;11773;52.570;13.052;2022-09-28T02:10:42;0.40;;;0.40;;
23206;SDS011;11773;52.570;13.052;2022-09-28T02:13:27;0.37;;;0.37;;
23206;SDS011;11773;52.570;13.052;2022-09-28T02:16:05;0.30;;;0.30;;
23206;SDS011;11773;52.570;13.052;2022-09-28T02:18:50;0.30;;;0.30;;
23206;SDS011;11773;52.570;13.052;2022-09-28T02:21:22;0.40;;;0.40;;
23206;SDS011;11773;52.570;13.052;2022-09-28T02:24:05;0.40;;;0.40;;
23206;SDS011;11773;52.570;13.052;2022-09-28T02:26:37;0.93;;;0.50;;
23206;SDS011;11773;52.570;13.052;2022-09-28T02:29:10;0.30;;;0.30;;
23206;SDS011;11773;52.570;13.052;2022-09-28T02:31:40;0.33;;;0.33;;
23206;SDS011;11773;52.570;13.052;2022-09-28T02:34:10;0.50;;;0.50;;
23206;SDS011;11773;52.570;13.052;2022-09-28T02:36:39;0.30;;;0.30;;
23206;SDS011;11773;52.570;13.052;2022-09-28T02:39:14;0.40;;;0.40;;
23206;SDS011;11773;52.570;13.052;2022-09-28T02:41:47;0.40;;;0.40;;
23206;SDS011;11773;52.570;13.052;2022-09-28T02:53:24;0.40;;;0.40;;
23206;SDS011;11773;52.570;13.052;2022-09-28T02:56:59;0.50;;;0.50;;
23206;SDS011;11773;52.570;13.052;2022-09-28T03:00:04;0.40;;;0.40;;
23206;SDS011;11773;52.570;13.052;2022-09-28T03:02:45;0.37;;;0.37;;
23206;SDS011;11773;52.570;13.052;2022-09-28T03:05:36;0.30;;;0.30;;
23206;SDS011;11773;52.570;13.052;2022-09-28T03:09:12;0.40;;;0.40;;
23206;SDS011;11773;52.570;13.052;2022-09-28T03:11:36;0.23;;;0.23;;
23206;SDS011;11773;52.570;13.052;2022-09-28T03:14:05;0.23;;;0.23;;
23206;SDS011;11773;52.570;13.052;2022-09-28T03:16:35;0.30;;;0.30;;
23206;SDS011;11773;52.570;13.052;2022-09-28T03:19:06;0.20;;;0.20;;
23206;SDS011;11773;52.570;13.052;2022-09-28T03:21:37;0.30;;;0.30;;
23206;SDS011;11773;52.570;13.052;2022-09-28T03:24:07;0.30;;;0.30;;
23206;SDS011;11773;52.570;13.052;2022-09-28T03:26:37;0.30;;;0.30;;
23206;SDS011;11773;52.570;13.052;2022-09-28T03:29:06;0.20;;;0.20;;
23206;SDS011;11773;52.570;13.052;2022-09-28T03:31:36;0.30;;;0.30;;
23206;SDS011;11773;52.570;13.052;2022-09-28T03:34:05;0.40;;;0.40;;
23206;SDS011;11773;52.570;13.052;2022-09-28T03:36:35;0.40;;;0.40;;
23206;SDS011;11773;52.570;13.052;2022-09-28T03:39:04;0.40;;;0.40;;
23206;SDS011;11773;52.570;13.052;2022-09-28T03:41:34;0.33;;;0.33;;
23206;SDS011;11773;52.570;13.052;2022-09-28T03:44:04;0.40;;;0.40;;
23206;SDS011;11773;52.570;13.052;2022-09-28T03:46:33;0.40;;;0.40;;
23206;SDS011;11773;52.570;13.052;2022-09-28T03:49:02;0.70;;;0.70;;
23206;SDS011;11773;52.570;13.052;2022-09-28T03:51:32;0.30;;;0.30;;
23206;SDS011;11773;52.570;13.052;2022-09-28T03:54:01;0.40;;;0.40;;
23206;SDS011;11773;52.570;13.052;2022-09-28T03:56:31;0.40;;;0.40;;
23206;SDS011;11773;52.570;13.052;2022-09-28T03:59:03;0.30;;;0.30;;
23206;SDS011;11773;52.570;13.052;2022-09-28T04:01:33;0.40;;;0.40;;
23206;SDS011;11773;52.570;13.052;2022-09-28T04:04:03;0.60;;;0.60;;
23206;SDS011;11773;52.570;13.052;2022-09-28T04:06:32;0.50;;;0.50;;
23206;SDS011;11773;52.570;13.052;2022-09-28T04:09:02;0.60;;;0.60;;
23206;SDS011;11773;52.570;13.052;2022-09-28T04:11:31;0.57;;;0.57;;
23206;SDS011;11773;52.570;13.052;2022-09-28T04:14:02;0.50;;;0.50;;
23206;SDS011;11773;52.570;13.052;2022-09-28T04:16:32;0.50;;;0.50;;
23206;SDS011;11773;52.570;13.052;2022-09-28T04:19:01;0.50;;;0.50;;
23206;SDS011;11773;52.570;13.052;2022-09-28T04:21:31;0.37;;;0.37;;
23206;SDS011;11773;52.570;13.052;2022-09-28T04:24:00;0.90;;;0.50;;
23206;SDS011;11773;52.570;13.052;2022-09-28T04:26:30;0.30;;;0.30;;
23206;SDS011;11773;52.570;13.052;2022-09-28T04:28:59;0.40;;;0.40;;
23206;SDS011;11773;52.570;13.052;2022-09-28T04:31:46;0.30;;;0.30;;
23206;SDS011;11773;52.570;13.052;2022-09-28T04:34:19;0.67;;;0.43;;
23206;SDS011;11773;52.570;13.052;2022-09-28T04:36:50;0.40;;;0.40;;
23206;SDS011;11773;52.570;13.052;2022-09-28T04:39:19;0.37;;;0.37;;
23206;SDS011;11773;52.570;13.052;2022-09-28T04:41:48;0.50;;;0.43;;
23206;SDS011;11773;52.570;13.052;2022-09-28T04:44:18;0.30;;;0.30;;
23206;SDS011;11773;52.570;13.052;2022-09-28T04:46:47;0.43;;;0.43;;
23206;SDS011;11773;52.570;13.052;2022-09-28T04:49:17;0.60;;;0.60;;
23206;SDS011;11773;52.570;13.052;2022-09-28T04:51:46;0.50;;;0.50;;
23206;SDS011;11773;52.570;13.052;2022-09-28T04:54:16;0.40;;;0.40;;
23206;SDS011;11773;52.570;13.052;2022-09-28T04:56:45;1.77;;;0.80;;
23206;SDS011;11773;52.570;13.052;2022-09-28T04:59:15;0.30;;;0.30;;
23206;SDS011;11773;52.570;13.052;2022-09-28T05:01:44;0.40;;;0.40;;
23206;SDS011;11773;52.570;13.052;2022-09-28T05:04:14;0.67;;;0.67;;
23206;SDS011;11773;52.570;13.052;2022-09-28T05:06:45;1.00;;;1.00;;
23206;SDS011;11773;52.570;13.052;2022-09-28T05:09:15;0.97;;;0.80;;
23206;SDS011;11773;52.570;13.052;2022-09-28T05:11:44;0.80;;;0.80;;
23206;SDS011;11773;52.570;13.052;2022-09-28T05:14:16;0.73;;;0.73;;
23206;SDS011;11773;52.570;13.052;2022-09-28T05:16:48;1.17;;;1.07;;
23206;SDS011;11773;52.570;13.052;2022-09-28T05:19:17;0.70;;;0.70;;
23206;SDS011;11773;52.570;13.052;2022-09-28T05:21:47;1.10;;;1.10;;
23206;SDS011;11773;52.570;13.052;2022-09-28T05:24:16;1.23;;;1.20;;
23206;SDS011;11773;52.570;13.052;2022-09-28T05:26:46;1.17;;;1.17;;
23206;SDS011;11773;52.570;13.052;2022-09-28T05:29:15;0.97;;;0.97;;
23206;SDS011;11773;52.570;13.052;2022-09-28T05:31:45;1.50;;;1.40;;
23206;SDS011;11773;52.570;13.052;2022-09-28T05:34:14;1.10;;;1.10;;
23206;SDS011;11773;52.570;13.052;2022-09-28T05:36:43;1.10;;;1.10;;
23206;SDS011;11773;52.570;13.052;2022-09-28T05:39:13;1.27;;;1.00;;
23206;SDS011;11773;52.570;13.052;2022-09-28T05:41:43;0.80;;;0.80;;
23206;SDS011;11773;52.570;13.052;2022-09-28T05:44:12;0.90;;;0.90;;
23206;SDS011;11773;52.570;13.052;2022-09-28T05:46:42;0.80;;;0.80;;
23206;SDS011;11773;52.570;13.052;2022-09-28T05:49:11;0.70;;;0.70;;
23206;SDS011;11773;52.570;13.052;2022-09-28T05:51:41;0.60;;;0.60;;
23206;SDS011;11773;52.570;13.052;2022-09-28T05:54:10;0.93;;;0.93;;
23206;SDS011;11773;52.570;13.052;2022-09-28T05:56:40;1.07;;;1.07;;
23206;SDS011;11773;52.570;13.052;2022-09-28T05:59:09;0.80;;;0.80;;
23206;SDS011;11773;52.570;13.052;2022-09-28T06:01:39;1.50;;;1.40;;
23206;SDS011;11773;52.570;13.052;2022-09-28T06:04:08;1.60;;;1.50;;
23206;SDS011;11773;52.570;13.052;2022-09-28T06:06:39;1.50;;;1.40;;
23206;SDS011;11773;52.570;13.052;2022-09-28T06:09:09;1.80;;;1.00;;
23206;SDS011;11773;52.570;13.052;2022-09-28T06:11:38;1.03;;;1.00;;
23206;SDS011;11773;52.570;13.052;2022-09-28T06:14:08;1.07;;;1.07;;
23206;SDS011;11773;52.570;13.052;2022-09-28T06:16:39;1.30;;;1.20;;
23206;SDS011;11773;52.570;13.052;2022-09-28T06:19:10;1.20;;;1.10;;
23206;SDS011;11773;52.570;13.052;2022-09-28T06:21:40;1.13;;;1.10;;
23206;SDS011;11773;52.570;13.052;2022-09-28T06:24:09;0.60;;;0.60;;
23206;SDS011;11773;52.570;13.052;2022-09-28T06:26:39;1.27;;;1.00;;
23206;SDS011;11773;52.570;13.052;2022-09-28T06:29:09;1.60;;;1.50;;
23206;SDS011;11773;52.570;13.052;2022-09-28T06:31:42;1.07;;;1.00;;
23206;SDS011;11773;52.570;13.052;2022-09-28T06:34:12;0.93;;;0.93;;
23206;SDS011;11773;52.570;13.052;2022-09-28T06:36:42;1.20;;;1.10;;
23206;SDS011;11773;52.570;13.052;2022-09-28T06:39:11;1.77;;;1.67;;
23206;SDS011;11773;52.570;13.052;2022-09-28T06:41:41;1.50;;;1.40;;
23206;SDS011;11773;52.570;13.052;2022-09-28T06:44:10;1.60;;;1.50;;
23206;SDS011;11773;52.570;13.052;2022-09-28T06:46:40;1.50;;;1.40;;
23206;SDS011;11773;52.570;13.052;2022-09-28T06:49:09;0.97;;;0.90;;
23206;SDS011;11773;52.570;13.052;2022-09-28T06:51:41;1.13;;;0.90;;
23206;SDS011;11773;52.570;13.052;2022-09-28T06:54:12;1.00;;;1.00;;
23206;SDS011;11773;52.570;13.052;2022-09-28T06:56:42;1.10;;;1.10;;
23206;SDS011;11773;52.570;13.052;2022-09-28T06:59:12;1.47;;;1.30;;
23206;SDS011;11773;52.570;13.052;2022-09-28T07:01:42;1.13;;;1.03;;
23206;SDS011;11773;52.570;13.052;2022-09-28T07:04:11;1.00;;;1.00;;
23206;SDS011;11773;52.570;13.052;2022-09-28T07:06:45;1.57;;;1.47;;
23206;SDS011;11773;52.570;13.052;2022-09-28T07:09:16;2.37;;;2.17;;
23206;SDS011;11773;52.570;13.052;2022-09-28T07:11:47;2.10;;;1.80;;
23206;SDS011;11773;52.570;13.052;2022-09-28T07:14:18;1.90;;;1.80;;
23206;SDS011;11773;52.570;13.052;2022-09-28T07:16:51;1.77;;;1.67;;
23206;SDS011;11773;52.570;13.052;2022-09-28T07:19:22;1.70;;;1.60;;
23206;SDS011;11773;52.570;13.052;2022-09-28T07:21:52;1.80;;;1.70;;
23206;SDS011;11773;52.570;13.052;2022-09-28T07:24:24;1.97;;;1.87;;
23206;SDS011;11773;52.570;13.052;2022-09-28T07:26:55;1.70;;;1.60;;
23206;SDS011;11773;52.570;13.052;2022-09-28T07:29:25;1.47;;;1.37;;
23206;SDS011;11773;52.570;13.052;2022-09-28T07:31:54;1.83;;;1.73;;
23206;SDS011;11773;52.570;13.052;2022-09-28T07:34:24;1.93;;;1.60;;
23206;SDS011;11773;52.570;13.052;2022-09-28T07:36:54;1.53;;;1.43;;
23206;SDS011;11773;52.570;13.052;2022-09-28T07:39:24;2.23;;;1.90;;
23206;SDS011;11773;52.570;13.052;2022-09-28T07:41:54;1.70;;;1.60;;
23206;SDS011;11773;52.570;13.052;2022-09-28T07:44:25;1.70;;;1.60;;
23206;SDS011;11773;52.570;13.052;2022-09-28T07:46:55;1.90;;;1.70;;
23206;SDS011;11773;52.570;13.052;2022-09-28T07:49:24;1.57;;;1.47;;
23206;SDS011;11773;52.570;13.052;2022-09-28T07:51:54;1.67;;;1.57;;
23206;SDS011;11773;52.570;13.052;2022-09-28T07:54:23;1.60;;;1.50;;
23206;SDS011;11773;52.570;13.052;2022-09-28T07:56:53;1.13;;;1.10;;
23206;SDS011;11773;52.570;13.052;2022-09-28T07:59:22;1.03;;;1.03;;
23206;SDS011;11773;52.570;13.052;2022-09-28T08:01:52;2.27;;;2.07;;
23206;SDS011;11773;52.570;13.052;2022-09-28T08:04:21;1.60;;;1.50;;
23206;SDS011;11773;52.570;13.052;2022-09-28T08:06:51;2.03;;;1.93;;
23206;SDS011;11773;52.570;13.052;2022-09-28T08:09:21;1.93;;;1.80;;
23206;SDS011;11773;52.570;13.052;2022-09-28T08:11:50;1.50;;;1.40;;
23206;SDS011;11773;52.570;13.052;2022-09-28T08:14:20;1.73;;;1.63;;
23206;SDS011;11773;52.570;13.052;2022-09-28T08:16:51;1.97;;;1.77;;
23206;SDS011;11773;52.570;13.052;2022-09-28T08:19:20;1.80;;;1.70;;
23206;SDS011;11773;52.570;13.052;2022-09-28T08:21:50;1.80;;;1.70;;
23206;SDS011;11773;52.570;13.052;2022-09-28T08:24:20;2.03;;;1.93;;
23206;SDS011;11773;52.570;13.052;2022-09-28T08:26:50;2.80;;;2.37;;
23206;SDS011;11773;52.570;13.052;2022-09-28T08:29:21;2.00;;;1.90;;
23206;SDS011;11773;52.570;13.052;2022-09-28T08:31:51;1.77;;;1.67;;
23206;SDS011;11773;52.570;13.052;2022-09-28T08:34:22;1.50;;;1.40;;
23206;SDS011;11773;52.570;13.052;2022-09-28T08:36:55;1.80;;;1.70;;
23206;SDS011;11773;52.570;13.052;2022-09-28T08:39:25;1.43;;;1.33;;
23206;SDS011;11773;52.570;13.052;2022-09-28T08:44:52;2.90;;;2.50;;
23206;SDS011;11773;52.570;13.052;2022-09-28T08:47:30;2.03;;;1.93;;
23206;SDS011;11773;52.570;13.052;2022-09-28T08:50:32;1.70;;;1.50;;
23206;SDS011;11773;52.570;13.052;2022-09-28T08:53:11;1.47;;;1.37;;
23206;SDS011;11773;52.570;13.052;2022-09-28T08:56:02;1.57;;;1.47;;
23206;SDS011;11773;52.570;13.052;2022-09-28T08:58:36;2.20;;;2.00;;
23206;SDS011;11773;52.570;13.052;2022-09-28T09:01:10;1.30;;;1.20;;
23206;SDS011;11773;52.570;13.052;2022-09-28T09:03:43;2.40;;;2.20;;
23206;SDS011;11773;52.570;13.052;2022-09-28T09:06:27;1.47;;;1.37;;
23206;SDS011;11773;52.570;13.052;2022-09-28T09:09:22;1.40;;;1.30;;
23206;SDS011;11773;52.570;13.052;2022-09-28T09:18:27;2.10;;;1.90;;
23206;SDS011;11773;52.570;13.052;2022-09-28T09:20:58;1.57;;;1.47;;
23206;SDS011;11773;52.570;13.052;2022-09-28T09:23:53;1.60;;;1.50;;
23206;SDS011;11773;52.570;13.052;2022-09-28T09:26:36;1.20;;;1.10;;
23206;SDS011;11773;52.570;13.052;2022-09-28T09:29:20;1.30;;;1.20;;
23206;SDS011;11773;52.570;13.052;2022-09-28T09:38:06;1.30;;;1.20;;
23206;SDS011;11773;52.570;13.052;2022-09-28T09:43:53;0.80;;;0.80;;
23206;SDS011;11773;52.570;13.052;2022-09-28T09:49:24;0.80;;;0.80;;
23206;SDS011;11773;52.570;13.052;2022-09-28T09:54:58;0.97;;;0.90;;
23206;SDS011;11773;52.570;13.052;2022-09-28T09:57:28;0.57;;;0.57;;
23206;SDS011;11773;52.570;13.052;2022-09-28T10:00:12;1.87;;;0.80;;
23206;SDS011;11773;52.570;13.052;2022-09-28T10:02:43;0.70;;;0.70;;
23206;SDS011;11773;52.570;13.052;2022-09-28T10:05:25;0.63;;;0.60;;
23206;SDS011;11773;52.570;13.052;2022-09-28T10:10:47;0.70;;;0.70;;
23206;SDS011;11773;52.570;13.052;2022-09-28T10:13:21;0.50;;;0.50;;
23206;SDS011;11773;52.570;13.052;2022-09-28T10:15:50;0.40;;;0.40;;
23206;SDS011;11773;52.570;13.052;2022-09-28T10:18:21;0.50;;;0.50;;
23206;SDS011;11773;52.570;13.052;2022-09-28T10:20:51;0.40;;;0.40;;
23206;SDS011;11773;52.570;13.052;2022-09-28T10:23:26;0.70;;;0.63;;
23206;SDS011;11773;52.570;13.052;2022-09-28T10:26:14;0.73;;;0.50;;
23206;SDS011;11773;52.570;13.052;2022-09-28T10:28:51;0.60;;;0.60;;
23206;SDS011;11773;52.570;13.052;2022-09-28T10:31:33;0.63;;;0.57;;
23206;SDS011;11773;52.570;13.052;2022-09-28T10:34:13;0.30;;;0.30;;
23206;SDS011;11773;52.570;13.052;2022-09-28T10:36:47;0.43;;;0.40;;
23206;SDS011;11773;52.570;13.052;2022-09-28T10:39:36;0.50;;;0.50;;
23206;SDS011;11773;52.570;13.052;2022-09-28T10:42:30;0.35;;;0.30;;
23206;SDS011;11773;52.570;13.052;2022-09-28T10:45:17;0.50;;;0.50;;
23206;SDS011;11773;52.570;13.052;2022-09-28T10:47:49;0.80;;;0.80;;
23206;SDS011;11773;52.570;13.052;2022-09-28T10:50:25;0.40;;;0.37;;
23206;SDS011;11773;52.570;13.052;2022-09-28T10:53:09;0.70;;;0.50;;
23206;SDS011;11773;52.570;13.052;2022-09-28T10:55:38;1.07;;;0.60;;
23206;SDS011;11773;52.570;13.052;2022-09-28T10:58:22;0.30;;;0.30;;
23206;SDS011;11773;52.570;13.052;2022-09-28T11:01:00;0.63;;;0.30;;
23206;SDS011;11773;52.570;13.052;2022-09-28T11:03:45;0.50;;;0.50;;
23206;SDS011;11773;52.570;13.052;2022-09-28T11:06:28;0.40;;;0.40;;
23206;SDS011;11773;52.570;13.052;2022-09-28T11:09:13;0.30;;;0.30;;
23206;SDS011;11773;52.570;13.052;2022-09-28T11:11:38;0.50;;;0.33;;
23206;SDS011;11773;52.570;13.052;2022-09-28T11:15:16;0.43;;;0.40;;
23206;SDS011;11773;52.570;13.052;2022-09-28T11:19:59;0.20;;;0.20;;
23206;SDS011;11773;52.570;13.052;2022-09-28T11:22:53;0.30;;;0.27;;
23206;SDS011;11773;52.570;13.052;2022-09-28T11:25:34;0.40;;;0.40;;
23206;SDS011;11773;52.570;13.052;2022-09-28T11:28:12;0.37;;;0.37;;
23206;SDS011;11773;52.570;13.052;2022-09-28T11:30:46;0.50;;;0.40;;
23206;SDS011;11773;52.570;13.052;2022-09-28T11:33:29;1.20;;;0.30;;
23206;SDS011;11773;52.570;13.052;2022-09-28T11:41:43;0.40;;;0.30;;
23206;SDS011;11773;52.570;13.052;2022-09-28T11:44:38;0.23;;;0.23;;
23206;SDS011;11773;52.570;13.052;2022-09-28T11:50:41;0.30;;;0.30;;
23206;SDS011;11773;52.570;13.052;2022-09-28T11:56:15;0.30;;;0.30;;
23206;SDS011;11773;52.570;13.052;2022-09-28T11:59:04;0.20;;;0.20;;
23206;SDS011;11773;52.570;13.052;2022-09-28T12:01:50;0.30;;;0.30;;
23206;SDS011;11773;52.570;13.052;2022-09-28T12:07:19;0.30;;;0.30;;
23206;SDS011;11773;52.570;13.052;2022-09-28T12:10:09;0.30;;;0.20;;
23206;SDS011;11773;52.570;13.052;2022-09-28T12:12:46;0.23;;;0.23;;
23206;SDS011;11773;52.570;13.052;2022-09-28T12:15:23;0.20;;;0.20;;
23206;SDS011;11773;52.570;13.052;2022-09-28T12:18:05;0.30;;;0.30;;
23206;SDS011;11773;52.570;13.052;2022-09-28T12:21:06;0.30;;;0.30;;
23206;SDS011;11773;52.570;13.052;2022-09-28T12:24:11;0.30;;;0.30;;
23206;SDS011;11773;52.570;13.052;2022-09-28T12:26:59;0.73;;;0.37;;
23206;SDS011;11773;52.570;13.052;2022-09-28T12:29:52;0.47;;;0.30;;
23206;SDS011;11773;52.570;13.052;2022-09-28T12:32:49;0.70;;;0.70;;
23206;SDS011;11773;52.570;13.052;2022-09-28T12:38:36;0.80;;;0.50;;
23206;SDS011;11773;52.570;13.052;2022-09-28T12:47:04;0.43;;;0.33;;
23206;SDS011;11773;52.570;13.052;2022-09-28T12:50:02;0.60;;;0.30;;
23206;SDS011;11773;52.570;13.052;2022-09-28T12:52:54;0.60;;;0.40;;
23206;SDS011;11773;52.570;13.052;2022-09-28T12:55:49;0.20;;;0.20;;
23206;SDS011;11773;52.570;13.052;2022-09-28T12:58:37;0.20;;;0.20;;
23206;SDS011;11773;52.570;13.052;2022-09-28T13:07:06;0.47;;;0.40;;
23206;SDS011;11773;52.570;13.052;2022-09-28T13:09:59;0.23;;;0.23;;
23206;SDS011;11773;52.570;13.052;2022-09-28T13:15:13;0.20;;;0.20;;
23206;SDS011;11773;52.570;13.052;2022-09-28T13:18:03;0.50;;;0.40;;
23206;SDS011;11773;52.570;13.052;2022-09-28T13:20:40;0.30;;;0.30;;
23206;SDS011;11773;52.570;13.052;2022-09-28T13:23:34;0.20;;;0.20;;
23206;SDS011;11773;52.570;13.052;2022-09-28T13:26:33;0.30;;;0.27;;
23206;SDS011;11773;52.570;13.052;2022-09-28T13:29:09;0.20;;;0.20;;
23206;SDS011;11773;52.570;13.052;2022-09-28T13:31:49;0.20;;;0.20;;
23206;SDS011;11773;52.570;13.052;2022-09-28T13:34:26;0.40;;;0.30;;
23206;SDS011;11773;52.570;13.052;2022-09-28T13:37:09;0.30;;;0.30;;
23206;SDS011;11773;52.570;13.052;2022-09-28T13:39:48;0.43;;;0.43;;
23206;SDS011;11773;52.570;13.052;2022-09-28T13:42:22;0.37;;;0.30;;
23206;SDS011;11773;52.570;13.052;2022-09-28T13:48:20;0.30;;;0.20;;
23206;SDS011;11773;52.570;13.052;2022-09-28T13:54:02;0.30;;;0.30;;
23206;SDS011;11773;52.570;13.052;2022-09-28T13:56:45;0.33;;;0.33;;
23206;SDS011;11773;52.570;13.052;2022-09-28T13:59:48;0.30;;;0.30;;
23206;SDS011;11773;52.570;13.052;2022-09-28T14:08:22;0.67;;;0.63;;
23206;SDS011;11773;52.570;13.052;2022-09-28T14:11:21;0.37;;;0.37;;
23206;SDS011;11773;52.570;13.052;2022-09-28T14:13:59;0.30;;;0.30;;
23206;SDS011;11773;52.570;13.052;2022-09-28T14:16:38;0.63;;;0.50;;
23206;SDS011;11773;52.570;13.052;2022-09-28T14:19:12;0.43;;;0.43;;
23206;SDS011;11773;52.570;13.052;2022-09-28T14:24:49;0.50;;;0.50;;
23206;SDS011;11773;52.570;13.052;2022-09-28T14:27:39;0.40;;;0.40;;
23206;SDS011;11773;52.570;13.052;2022-09-28T14:30:44;1.43;;;0.70;;
23206;SDS011;11773;52.570;13.052;2022-09-28T14:33:25;0.53;;;0.50;;
23206;SDS011;11773;52.570;13.052;2022-09-28T14:35:58;0.73;;;0.37;;
23206;SDS011;11773;52.570;13.052;2022-09-28T14:38:35;0.30;;;0.30;;
23206;SDS011;11773;52.570;13.052;2022-09-28T14:44:00;0.50;;;0.50;;
23206;SDS011;11773;52.570;13.052;2022-09-28T14:46:42;0.40;;;0.40;;
23206;SDS011;11773;52.570;13.052;2022-09-28T14:54:36;0.30;;;0.30;;
23206;SDS011;11773;52.570;13.052;2022-09-28T14:57:23;0.30;;;0.30;;
23206;SDS011;11773;52.570;13.052;2022-09-28T14:59:55;0.50;;;0.50;;
23206;SDS011;11773;52.570;13.052;2022-09-28T15:02:29;0.30;;;0.30;;
23206;SDS011;11773;52.570;13.052;2022-09-28T15:05:11;0.30;;;0.30;;
23206;SDS011;11773;52.570;13.052;2022-09-28T15:07:43;0.40;;;0.40;;
23206;SDS011;11773;52.570;13.052;2022-09-28T15:10:43;0.37;;;0.37;;
23206;SDS011;11773;52.570;13.052;2022-09-28T15:12:59;0.30;;;0.30;;
23206;SDS011;11773;52.570;13.052;2022-09-28T15:15:52;0.20;;;0.20;;
23206;SDS011;11773;52.570;13.052;2022-09-28T15:21:34;0.43;;;0.40;;
23206;SDS011;11773;52.570;13.052;2022-09-28T15:24:23;0.40;;;0.40;;
23206;SDS011;11773;52.570;13.052;2022-09-28T15:26:58;0.63;;;0.50;;
23206;SDS011;11773;52.570;13.052;2022-09-28T15:29:31;0.43;;;0.43;;
23206;SDS011;11773;52.570;13.052;2022-09-28T15:32:00;0.80;;;0.70;;
23206;SDS011;11773;52.570;13.052;2022-09-28T15:34:34;0.83;;;0.63;;
23206;SDS011;11773;52.570;13.052;2022-09-28T15:37:22;0.40;;;0.40;;
23206;SDS011;11773;52.570;13.052;2022-09-28T15:39:55;0.30;;;0.30;;
23206;SDS011;11773;52.570;13.052;2022-09-28T15:42:33;0.33;;;0.33;;
23206;SDS011;11773;52.570;13.052;2022-09-28T15:47:51;0.27;;;0.27;;
23206;SDS011;11773;52.570;13.052;2022-09-28T15:50:29;0.30;;;0.30;;
23206;SDS011;11773;52.570;13.052;2022-09-28T15:53:01;0.20;;;0.20;;
23206;SDS011;11773;52.570;13.052;2022-09-28T15:55:33;0.27;;;0.20;;
23206;SDS011;11773;52.570;13.052;2022-09-28T15:58:16;0.40;;;0.40;;
23206;SDS011;11773;52.570;13.052;2022-09-28T16:00:50;0.60;;;0.40;;
23206;SDS011;11773;52.570;13.052;2022-09-28T16:03:39;0.37;;;0.37;;
23206;SDS011;11773;52.570;13.052;2022-09-28T16:06:08;0.30;;;0.30;;
23206;SDS011;11773;52.570;13.052;2022-09-28T16:08:42;0.30;;;0.30;;
23206;SDS011;11773;52.570;13.052;2022-09-28T16:11:25;0.30;;;0.30;;
23206;SDS011;11773;52.570;13.052;2022-09-28T16:16:43;0.40;;;0.40;;
23206;SDS011;11773;52.570;13.052;2022-09-28T16:19:21;0.40;;;0.40;;
23206;SDS011;11773;52.570;13.052;2022-09-28T16:21:50;0.40;;;0.40;;
23206;SDS011;11773;52.570;13.052;2022-09-28T16:24:25;0.37;;;0.37;;
23206;SDS011;11773;52.570;13.052;2022-09-28T16:27:06;0.30;;;0.30;;
23206;SDS011;11773;52.570;13.052;2022-09-28T16:33:02;0.10;;;0.10;;
23206;SDS011;11773;52.570;13.052;2022-09-28T16:36:00;0.40;;;0.40;;
23206;SDS011;11773;52.570;13.052;2022-09-28T16:38:29;0.40;;;0.40;;
23206;SDS011;11773;52.570;13.052;2022-09-28T16:40:58;0.27;;;0.20;;
23206;SDS011;11773;52.570;13.052;2022-09-28T16:43:29;0.53;;;0.30;;
23206;SDS011;11773;52.570;13.052;2022-09-28T16:46:06;1.07;;;0.20;;
23206;SDS011;11773;52.570;13.052;2022-09-28T16:48:48;0.20;;;0.20;;
23206;SDS011;11773;52.570;13.052;2022-09-28T16:51:17;0.23;;;0.20;;
23206;SDS011;11773;52.570;13.052;2022-09-28T16:53:48;0.20;;;0.20;;
23206;SDS011;11773;52.570;13.052;2022-09-28T16:56:35;0.23;;;0.23;;
23206;SDS011;11773;52.570;13.052;2022-09-28T16:59:05;0.20;;;0.20;;
23206;SDS011;11773;52.570;13.052;2022-09-28T17:01:39;0.30;;;0.30;;
23206;SDS011;11773;52.570;13.052;2022-09-28T17:04:09;0.27;;;0.27;;
23206;SDS011;11773;52.570;13.052;2022-09-28T17:06:39;0.43;;;0.30;;
23206;SDS011;11773;52.570;13.052;2022-09-28T17:09:10;0.23;;;0.23;;
23206;SDS011;11773;52.570;13.052;2022-09-28T17:11:40;0.30;;;0.30;;
23206;SDS011;11773;52.570;13.052;2022-09-28T17:14:10;0.43;;;0.40;;
23206;SDS011;11773;52.570;13.052;2022-09-28T17:16:40;0.30;;;0.30;;